Terminal Aerodrome Forecast
Issued by NWS

Home | Current Version | Previous Version | Text Only | Print | Product List | Glossary On
Versions: 1 2 3 4 5 6 7 8 9 10 11 12 13 14 15 16
762
FTAK31 PAJN 270121 AAC
TAFAGY
TAF AMD
PAGY 270121Z 2701/2724 21016KT P6SM VCTS FEW030 BKN100CB
      TEMPO 2701/2703 21022G34KT -SHRA SCT025 OVC040
     FM270400 VRB04KT P6SM VCSH BKN040
     FM270800 02004KT P6SM SCT040
     FM271200 02012KT P6SM SCT040
      AMD LTD TO CLD VIS AND WIND=

USA.gov is the U.S. government's official web portal to all federal, state and local government web resources and services.